createdAt,value
2023-03-05T00:02:48.969Z,86.09
2023-03-05T00:07:52.354Z,85.62
2023-03-05T00:12:57.173Z,85.28
2023-03-05T00:18:00.818Z,84.85
2023-03-05T00:23:04.548Z,84.86
2023-03-05T00:28:09.908Z,84.47
2023-03-05T00:33:14.914Z,84.72
2023-03-05T00:38:18.237Z,85.24
2023-03-05T00:43:23.281Z,85.27
2023-03-05T00:48:26.915Z,84.91
2023-03-05T00:53:30.441Z,85.43
2023-03-05T00:58:35.818Z,85.25
2023-03-05T01:03:39.332Z,84.74
2023-03-05T01:08:42.810Z,83.94
2023-03-05T01:13:47.946Z,83.94
2023-03-05T01:18:51.424Z,83.68
2023-03-05T01:23:55.073Z,84.50
2023-03-05T01:29:00.053Z,85.16
2023-03-05T01:34:03.558Z,84.84
2023-03-05T01:39:06.946Z,84.12
2023-03-05T01:44:25.831Z,82.16
2023-03-05T01:49:32.103Z,82.21
2023-03-05T01:54:40.099Z,82.09
2023-03-05T01:59:48.834Z,81.34
2023-03-05T02:04:56.728Z,80.71
2023-03-05T02:10:00.482Z,80.62
2023-03-05T02:15:05.967Z,80.21
2023-03-05T02:20:13.165Z,79.79
2023-03-05T02:25:21.162Z,79.70
2023-03-05T02:30:25.420Z,79.53
2023-03-05T02:35:29.228Z,79.22
2023-03-05T02:40:34.870Z,79.13
2023-03-05T02:45:39.183Z,79.26
2023-03-05T02:50:43.453Z,79.30
2023-03-05T02:55:49.833Z,78.90
2023-03-05T03:00:53.369Z,79.21
2023-03-05T03:05:56.851Z,78.70
2023-03-05T03:11:08.762Z,79.06
2023-03-05T03:16:15.294Z,78.88
2023-03-05T03:21:20.249Z,79.37
2023-03-05T03:26:25.477Z,79.06
2023-03-05T03:31:28.967Z,79.37
2023-03-05T03:36:32.462Z,79.62
2023-03-05T03:41:37.473Z,79.48
2023-03-05T03:46:42.313Z,78.86
2023-03-05T03:51:46.116Z,79.07
2023-03-05T03:56:51.344Z,78.75
2023-03-05T04:02:20.417Z,79.63
2023-03-05T04:07:23.799Z,79.32
2023-03-05T04:12:28.918Z,79.65
2023-03-05T04:17:32.314Z,79.63
2023-03-05T04:22:35.674Z,79.98
2023-03-05T04:27:41.562Z,79.80
2023-03-05T04:32:45.084Z,79.67
2023-03-05T04:37:48.565Z,80.13
2023-03-05T04:42:53.309Z,80.70
2023-03-05T04:47:56.707Z,80.40
2023-03-05T04:53:00.649Z,80.03
2023-03-05T04:58:05.703Z,80.31
2023-03-05T05:03:09.458Z,80.20
2023-03-05T05:08:12.994Z,80.69
2023-03-05T05:13:17.782Z,80.70
2023-03-05T05:18:21.409Z,80.35
2023-03-05T05:23:25.217Z,79.50
2023-03-05T05:28:30.608Z,79.76
2023-03-05T05:33:34.101Z,79.70
2023-03-05T05:38:37.868Z,79.80
2023-03-05T05:43:43.005Z,79.65
2023-03-05T05:48:46.734Z,79.43
2023-03-05T05:53:50.800Z,79.43
2023-03-05T05:58:56.409Z,78.96
2023-03-05T06:04:00.276Z,78.23
2023-03-05T06:09:03.908Z,78.00
2023-03-05T06:14:08.929Z,77.71
2023-03-05T06:19:13.382Z,77.27
2023-03-05T06:24:16.783Z,76.47
2023-03-05T06:29:21.554Z,77.51
2023-03-05T06:34:25.107Z,77.16
2023-03-05T06:39:28.690Z,78.04
2023-03-05T06:44:33.510Z,77.75
2023-03-05T06:49:36.885Z,77.09
2023-03-05T06:54:40.419Z,77.05
2023-03-05T06:59:45.304Z,77.32
2023-03-05T07:04:48.986Z,75.33
2023-03-05T07:09:53.824Z,75.13
2023-03-05T07:14:58.632Z,75.31
2023-03-05T07:20:02.484Z,76.02
2023-03-05T07:25:08.364Z,76.24
2023-03-05T07:30:15.385Z,75.93
2023-03-05T07:35:18.918Z,75.98
2023-03-05T07:40:22.544Z,76.05
2023-03-05T07:45:27.294Z,76.13
2023-03-05T07:50:33.074Z,75.73
2023-03-05T07:55:36.863Z,74.95
2023-03-05T08:00:42.610Z,73.54
2023-03-05T08:05:46.280Z,73.17
2023-03-05T08:10:49.639Z,71.57
2023-03-05T08:15:54.489Z,72.73
2023-03-05T08:20:58.191Z,71.38
2023-03-05T08:26:02.121Z,70.78
2023-03-05T08:31:10.257Z,69.42
2023-03-05T08:36:13.693Z,68.71
2023-03-05T08:41:18.531Z,68.51
2023-03-05T08:46:23.646Z,68.71
2023-03-05T08:51:27.934Z,68.29
2023-03-05T08:56:31.648Z,67.04
2023-03-05T09:01:36.908Z,64.46
2023-03-05T09:06:40.661Z,64.15
2023-03-05T09:11:44.313Z,62.70
2023-03-05T09:16:49.400Z,61.65
2023-03-05T09:21:55.391Z,61.47
2023-03-05T09:27:01.091Z,61.14
2023-03-05T09:32:06.521Z,59.56
2023-03-05T09:37:10.335Z,60.74
2023-03-05T09:42:29.895Z,60.23
2023-03-05T09:47:47.712Z,60.27
2023-03-05T09:52:56.258Z,59.25
2023-03-05T09:58:06.909Z,59.90
2023-03-05T10:03:18.007Z,57.92
2023-03-05T10:08:31.142Z,56.79
2023-03-05T10:13:39.740Z,55.84
2023-03-05T10:18:55.198Z,55.00
2023-03-05T10:24:12.900Z,53.61
2023-03-05T10:29:47.886Z,53.04
2023-03-05T10:35:14.458Z,53.13
2023-03-05T10:40:29.606Z,51.29
2023-03-05T10:45:38.245Z,52.81
2023-03-05T10:50:49.437Z,52.79
2023-03-05T10:55:56.284Z,53.03
2023-03-05T11:01:06.205Z,56.06
2023-03-05T11:06:14.345Z,56.83
2023-03-05T11:11:19.571Z,56.71
2023-03-05T11:16:26.963Z,54.86
2023-03-05T11:21:31.817Z,52.21
2023-03-05T11:26:35.418Z,51.16
2023-03-05T11:31:39.091Z,51.54
2023-03-05T11:36:44.860Z,54.65
2023-03-05T11:41:51.317Z,56.32
2023-03-05T11:46:58.817Z,55.74
2023-03-05T11:52:10.841Z,55.77
2023-03-05T11:57:15.652Z,53.05
2023-03-05T12:02:22.095Z,52.48
2023-03-05T12:07:35.869Z,52.60
2023-03-05T12:12:46.227Z,53.45
2023-03-05T12:18:02.010Z,53.74
2023-03-05T12:23:06.806Z,54.36
2023-03-05T12:28:16.305Z,53.60
2023-03-05T12:33:33.757Z,52.97
2023-03-05T12:38:39.324Z,52.50
2023-03-05T12:43:42.745Z,57.39
2023-03-05T12:48:46.586Z,57.54
2023-03-05T12:53:53.447Z,55.00
2023-03-05T12:59:02.461Z,54.00
2023-03-05T13:04:11.217Z,51.14
2023-03-05T13:09:21.832Z,50.76
2023-03-05T13:14:31.712Z,50.47
2023-03-05T13:19:36.205Z,52.04
2023-03-05T13:24:41.407Z,52.49
2023-03-05T13:29:53.270Z,52.06
2023-03-05T13:34:58.347Z,52.58
2023-03-05T13:40:07.464Z,52.36
2023-03-05T13:45:25.862Z,51.40
2023-03-05T13:50:31.096Z,57.48
2023-03-05T13:55:36.236Z,60.63
2023-03-05T14:00:41.357Z,62.94
2023-03-05T14:05:46.009Z,65.17
2023-03-05T14:10:51.953Z,65.56
2023-03-05T14:16:06.637Z,67.43
2023-03-05T14:21:11.817Z,67.41
2023-03-05T14:26:29.216Z,69.01
2023-03-05T14:31:38.089Z,69.95
2023-03-05T14:36:47.904Z,69.89
2023-03-05T14:41:52.761Z,69.19
2023-03-05T14:46:56.182Z,70.30
2023-03-05T14:51:59.665Z,70.17
2023-03-05T14:57:05.849Z,70.36
2023-03-05T15:02:15.663Z,70.57
2023-03-05T15:07:21.913Z,70.94
2023-03-05T15:12:29.749Z,71.61
2023-03-05T15:17:36.880Z,71.10
2023-03-05T15:22:40.659Z,70.80
2023-03-05T15:27:46.807Z,71.89
2023-03-05T15:32:50.877Z,72.32
2023-03-05T15:37:54.756Z,73.36
2023-03-05T15:43:00.915Z,74.08
2023-03-05T15:48:04.535Z,74.52
2023-03-05T15:53:08.097Z,75.04
2023-03-05T15:58:15.689Z,75.85
2023-03-05T16:03:20.030Z,76.12
2023-03-05T16:08:23.671Z,75.14
2023-03-05T16:13:30.632Z,75.44
2023-03-05T16:18:36.460Z,75.65
2023-03-05T16:23:39.828Z,76.04
2023-03-05T16:28:44.588Z,75.83
2023-03-05T16:33:48.230Z,76.27
2023-03-05T16:38:53.775Z,76.57
2023-03-05T16:43:58.625Z,76.54
2023-03-05T16:49:03.257Z,76.78
2023-03-05T16:54:09.013Z,77.09
2023-03-05T16:59:17.226Z,76.85
2023-03-05T17:04:21.087Z,77.29
2023-03-05T17:09:24.992Z,77.75
2023-03-05T17:14:30.172Z,78.26
2023-03-05T17:19:34.784Z,78.82
2023-03-05T17:24:42.783Z,79.23
2023-03-05T17:29:50.673Z,79.28
2023-03-05T17:34:55.574Z,79.34
2023-03-05T17:39:58.993Z,79.62
2023-03-05T17:45:05.103Z,79.75
2023-03-05T17:50:10.458Z,80.28
2023-03-05T17:55:17.351Z,80.44
2023-03-05T18:00:24.299Z,80.34
2023-03-05T18:05:29.828Z,81.25
2023-03-05T18:10:37.267Z,81.30
2023-03-05T18:15:47.577Z,81.75
2023-03-05T18:20:51.254Z,82.14
2023-03-05T18:25:55.247Z,81.63
2023-03-05T18:31:03.275Z,81.46
2023-03-05T18:36:07.326Z,80.70
2023-03-05T18:41:20.476Z,81.14
2023-03-05T18:46:25.637Z,80.41
2023-03-05T18:51:37.353Z,80.47
2023-03-05T18:56:43.628Z,80.07
2023-03-05T19:01:51.404Z,80.71
2023-03-05T19:06:57.504Z,80.68
2023-03-05T19:12:03.169Z,81.48
2023-03-05T19:17:08.168Z,81.40
2023-03-05T19:22:14.601Z,81.94
2023-03-05T19:27:21.515Z,82.69
2023-03-05T19:32:26.491Z,83.50
2023-03-05T19:37:29.976Z,83.67
2023-03-05T19:42:33.375Z,83.53
2023-03-05T19:47:38.501Z,83.21
2023-03-05T19:52:41.959Z,83.51
2023-03-05T19:57:46.523Z,82.61
2023-03-05T20:02:51.470Z,82.14
2023-03-05T20:07:55.360Z,82.25
2023-03-05T20:13:01.898Z,82.54
2023-03-05T20:18:09.830Z,81.06
2023-03-05T20:23:13.408Z,81.54
2023-03-05T20:28:16.797Z,81.65
2023-03-05T20:33:24.072Z,81.19
2023-03-05T20:38:29.815Z,81.71
2023-03-05T20:43:35.622Z,81.11
2023-03-05T20:48:40.746Z,80.48
2023-03-05T20:53:44.744Z,80.39
2023-03-05T20:58:48.195Z,79.09
2023-03-05T21:03:53.767Z,79.38
2023-03-05T21:08:57.568Z,79.95
2023-03-05T21:14:01.003Z,79.04
2023-03-05T21:19:05.810Z,78.37
2023-03-05T21:24:09.507Z,78.00
2023-03-05T21:29:12.885Z,79.06
2023-03-05T21:34:19.234Z,79.16
2023-03-05T21:39:22.646Z,78.69
2023-03-05T21:44:26.088Z,79.71
2023-03-05T21:49:31.174Z,79.84
2023-03-05T21:54:34.805Z,78.92
2023-03-05T21:59:41.029Z,78.71
2023-03-05T22:04:46.889Z,80.09
2023-03-05T22:09:55.545Z,80.04
2023-03-05T22:14:58.990Z,80.15
2023-03-05T22:20:04.048Z,81.85
2023-03-05T22:25:08.680Z,81.49
2023-03-05T22:30:14.134Z,80.24
2023-03-05T22:35:19.048Z,82.91
2023-03-05T22:40:23.712Z,82.44
2023-03-05T22:45:27.115Z,82.51
2023-03-05T22:50:31.948Z,82.56
2023-03-05T22:55:35.419Z,84.38
2023-03-05T23:00:39.277Z,85.32
2023-03-05T23:05:44.027Z,86.40
2023-03-05T23:10:47.448Z,86.54
2023-03-05T23:15:50.872Z,86.42
2023-03-05T23:20:55.951Z,85.78
2023-03-05T23:25:59.410Z,86.17
2023-03-05T23:31:03.959Z,85.87
2023-03-05T23:36:09.880Z,85.28
2023-03-05T23:41:13.586Z,85.14
2023-03-05T23:46:17.019Z,84.54
2023-03-05T23:51:21.749Z,83.07
2023-03-05T23:56:25.525Z,82.55
